nws-alerts: Checking more than four warning/county codes can delay the loading of your pages. You should use a cron job to get the data.
EllijayWeather Station Historical Data
Daily Summary for May 16, 2019 Units:  Metric    English   Both
Daily Weekly Monthly Yearly Custom
  High: Low: Average:
Temperature: 26.9 °C 10.9 °C 18.3 °C
Dew Point: 18.1 °C 10.3 °C 14.5 °C
Humidity: 97% 47% 81%
Wind Speed: 6.4km/h 0km/h 0.2km/h
Wind Gust: 12.9km/h - -
Wind- - South
Pressure: 1019.5 hPa 1014.4 hPa -
Precipitation: 0 mm    
Historical Graphs
 
 
Tabular Data for May 16, 2019
Time Temperature Dew Point Pressure Wind Wind Speed Wind Gust Humidity Rainfall Rate (Hourly) solar
00:04 13.2 °C 12.3 °C 1018.8 hPa Calm     94% 0 mm meteobridge W/m2
00:09 13.2 °C 12.3 °C 1018.8 hPa Calm     94% 0 mm meteobridge W/m2
00:14 13.1 °C 12.2 °C 1018.8 hPa Calm     94% 0 mm meteobridge W/m2
00:19 13.1 °C 12.2 °C 1018.8 hPa Calm     94% 0 mm meteobridge W/m2
00:24 13.1 °C 12.2 °C 1018.8 hPa Calm     94% 0 mm meteobridge W/m2
00:29 13.1 °C 12.2 °C 1018.8 hPa Calm     94% 0 mm meteobridge W/m2
00:34 13.1 °C 12.2 °C 1018.8 hPa Calm     94% 0 mm meteobridge W/m2
00:39 13 °C 12.1 °C 1018.8 hPa Calm     94% 0 mm meteobridge W/m2
00:44 13 °C 11.9 °C 1018.8 hPa Calm     93% 0 mm meteobridge W/m2
00:49 12.8 °C 11.7 °C 1018.8 hPa Calm     93% 0 mm meteobridge W/m2
00:54 12.8 °C 11.7 °C 1018.8 hPa Calm     93% 0 mm meteobridge W/m2
00:59 12.7 °C 11.8 °C 1018.8 hPa Calm     94% 0 mm meteobridge W/m2
01:04 12.7 °C 11.8 °C 1018.8 hPa Calm     94% 0 mm meteobridge W/m2
01:09 12.7 °C 11.9 °C 1018.8 hPa Calm     95% 0 mm meteobridge W/m2
01:14 12.7 °C 11.9 °C 1018.5 hPa Calm     95% 0 mm meteobridge W/m2
01:19 12.8 °C 12 °C 1018.5 hPa Calm     95% 0 mm meteobridge W/m2
01:24 12.8 °C 12 °C 1018.5 hPa Calm     95% 0 mm meteobridge W/m2
01:29 12.7 °C 11.8 °C 1018.5 hPa Calm     94% 0 mm meteobridge W/m2
01:34 12.7 °C 11.8 °C 1018.5 hPa Calm     94% 0 mm meteobridge W/m2
01:39 12.7 °C 11.8 °C 1018.5 hPa Calm     94% 0 mm meteobridge W/m2
01:44 12.5 °C 11.6 °C 1018.2 hPa Calm     94% 0 mm meteobridge W/m2
01:49 12.4 °C 11.5 °C 1018.5 hPa Calm     94% 0 mm meteobridge W/m2
01:54 12.4 °C 11.5 °C 1018.5 hPa Calm     94% 0 mm meteobridge W/m2
01:59 12.3 °C 11.4 °C 1018.5 hPa Calm     94% 0 mm meteobridge W/m2
02:04 12.2 °C 11.3 °C 1018.2 hPa Calm     94% 0 mm meteobridge W/m2
02:09 12.1 °C 11.2 °C 1018.2 hPa Calm     94% 0 mm meteobridge W/m2
02:14 12.1 °C 11.2 °C 1018.2 hPa Calm     94% 0 mm meteobridge W/m2
02:19 11.9 °C 11 °C 1018.2 hPa Calm     94% 0 mm meteobridge W/m2
02:24 11.8 °C 10.9 °C 1018.2 hPa Calm     94% 0 mm meteobridge W/m2
02:29 11.8 °C 11 °C 1018.2 hPa Calm     95% 0 mm meteobridge W/m2
02:34 11.7 °C 10.9 °C 1017.8 hPa Calm     95% 0 mm meteobridge W/m2
02:39 11.6 °C 10.8 °C 1018.2 hPa Calm     95% 0 mm meteobridge W/m2
02:44 11.6 °C 10.8 °C 1018.2 hPa Calm     95% 0 mm meteobridge W/m2
02:49 11.5 °C 10.7 °C 1018.2 hPa Calm     95% 0 mm meteobridge W/m2
02:54 11.5 °C 10.7 °C 1017.8 hPa Calm     95% 0 mm meteobridge W/m2
02:59 11.4 °C 10.6 °C 1018.2 hPa Calm     95% 0 mm meteobridge W/m2
03:04 11.5 °C 10.9 °C 1018.2 hPa Calm     96% 0 mm meteobridge W/m2
03:09 11.4 °C 10.8 °C 1017.8 hPa Calm     96% 0 mm meteobridge W/m2
03:14 11.4 °C 10.8 °C 1017.8 hPa Calm     96% 0 mm meteobridge W/m2
03:19 11.4 °C 10.6 °C 1017.8 hPa Calm     95% 0 mm meteobridge W/m2
03:24 11.4 °C 10.6 °C 1017.8 hPa Calm     95% 0 mm meteobridge W/m2
03:29 11.4 °C 10.6 °C 1017.8 hPa Calm     95% 0 mm meteobridge W/m2
03:34 11.3 °C 10.7 °C 1017.8 hPa Calm     96% 0 mm meteobridge W/m2
03:39 11.4 °C 10.8 °C 1017.8 hPa Calm     96% 0 mm meteobridge W/m2
03:44 11.4 °C 10.8 °C 1017.8 hPa Calm     96% 0 mm meteobridge W/m2
03:49 11.4 °C 10.8 °C 1017.8 hPa Calm     96% 0 mm meteobridge W/m2
03:54 11.4 °C 10.8 °C 1017.8 hPa Calm     96% 0 mm meteobridge W/m2
03:59 11.4 °C 10.8 °C 1017.8 hPa Calm     96% 0 mm meteobridge W/m2
04:04 11.4 °C 10.8 °C 1017.8 hPa Calm     96% 0 mm meteobridge W/m2
04:09 11.6 °C 11 °C 1017.8 hPa Calm     96% 0 mm meteobridge W/m2
04:14 11.6 °C 11 °C 1017.8 hPa Calm     96% 0 mm meteobridge W/m2
04:19 11.6 °C 11 °C 1017.8 hPa Calm     96% 0 mm meteobridge W/m2
04:24 11.6 °C 11 °C 1017.8 hPa Calm     96% 0 mm meteobridge W/m2
04:29 11.5 °C 10.9 °C 1017.8 hPa Calm     96% 0 mm meteobridge W/m2
04:34 11.4 °C 10.8 °C 1017.8 hPa Calm     96% 0 mm meteobridge W/m2
04:39 11.4 °C 10.8 °C 1017.8 hPa Calm     96% 0 mm meteobridge W/m2
04:44 11.4 °C 10.8 °C 1017.8 hPa Calm     96% 0 mm meteobridge W/m2
04:49 11.4 °C 10.8 °C 1017.8 hPa Calm     96% 0 mm meteobridge W/m2
04:54 11.4 °C 10.8 °C 1017.8 hPa Calm     96% 0 mm meteobridge W/m2
04:59 11.4 °C 10.8 °C 1017.8 hPa Calm     96% 0 mm meteobridge W/m2
05:04 11.4 °C 10.8 °C 1017.8 hPa Calm     96% 0 mm meteobridge W/m2
05:09 11.3 °C 10.7 °C 1017.8 hPa Calm     96% 0 mm meteobridge W/m2
05:14 11.4 °C 10.8 °C 1017.8 hPa Calm     96% 0 mm meteobridge W/m2
05:19 11.3 °C 10.7 °C 1017.8 hPa Calm     96% 0 mm meteobridge W/m2
05:24 11.3 °C 10.7 °C 1017.8 hPa Calm     96% 0 mm meteobridge W/m2
05:29 11.3 °C 10.7 °C 1017.8 hPa Calm     96% 0 mm meteobridge W/m2
05:34 11.3 °C 10.7 °C 1017.8 hPa Calm     96% 0 mm meteobridge W/m2
05:39 11.2 °C 10.6 °C 1017.8 hPa Calm     96% 0 mm meteobridge W/m2
05:44 11.2 °C 10.6 °C 1017.8 hPa Calm     96% 0 mm meteobridge W/m2
05:49 11.2 °C 10.6 °C 1017.8 hPa Calm     96% 0 mm meteobridge W/m2
05:54 11.2 °C 10.6 °C 1017.8 hPa Calm     96% 0 mm meteobridge W/m2
05:59 11.2 °C 10.6 °C 1017.8 hPa Calm     96% 0 mm meteobridge W/m2
06:04 11.1 °C 10.5 °C 1017.8 hPa Calm     96% 0 mm meteobridge W/m2
06:09 11.1 °C 10.5 °C 1017.8 hPa Calm     96% 0 mm meteobridge W/m2
06:14 11.1 °C 10.5 °C 1017.8 hPa Calm     96% 0 mm meteobridge W/m2
06:19 11.1 °C 10.5 °C 1017.8 hPa Calm     96% 0 mm meteobridge W/m2
06:24 11 °C 10.4 °C 1017.8 hPa Calm     96% 0 mm meteobridge W/m2
06:29 11.1 °C 10.5 °C 1017.8 hPa Calm     96% 0 mm meteobridge W/m2
06:34 11 °C 10.4 °C 1018.2 hPa Calm     96% 0 mm meteobridge W/m2
06:39 10.9 °C 10.3 °C 1018.2 hPa Calm     96% 0 mm meteobridge W/m2
06:44 10.9 °C 10.3 °C 1018.2 hPa Calm     96% 0 mm meteobridge W/m2
06:49 10.9 °C 10.4 °C 1018.2 hPa Calm     97% 0 mm meteobridge W/m2
06:54 11 °C 10.5 °C 1018.2 hPa Calm     97% 0 mm meteobridge W/m2
06:59 11 °C 10.5 °C 1018.5 hPa Calm     97% 0 mm meteobridge W/m2
07:04 11.1 °C 10.6 °C 1018.5 hPa Calm     97% 0 mm meteobridge W/m2
07:08 11.1 °C 10.6 °C 1018.8 hPa Calm     97% 0 mm meteobridge W/m2
07:14 11.2 °C 10.7 °C 1018.5 hPa Calm     97% 0 mm meteobridge W/m2
07:19 11.2 °C 10.7 °C 1018.8 hPa Calm     97% 0 mm meteobridge W/m2
07:24 11.3 °C 10.8 °C 1018.5 hPa Calm     97% 0 mm meteobridge W/m2
07:29 11.4 °C 10.9 °C 1018.8 hPa Calm     97% 0 mm meteobridge W/m2
07:34 11.5 °C 11 °C 1018.8 hPa Calm     97% 0 mm meteobridge W/m2
07:39 11.6 °C 11.1 °C 1018.8 hPa Calm     97% 0 mm meteobridge W/m2
07:44 11.7 °C 11.1 °C 1018.8 hPa Calm     96% 0 mm meteobridge W/m2
07:49 11.8 °C 11.2 °C 1018.8 hPa Calm     96% 0 mm meteobridge W/m2
07:54 11.9 °C 11.4 °C 1018.8 hPa Calm     97% 0 mm meteobridge W/m2
07:59 12.1 °C 11.5 °C 1018.8 hPa Calm     96% 0 mm meteobridge W/m2
08:04 12.2 °C 11.4 °C 1018.8 hPa Calm     95% 0 mm meteobridge W/m2
08:09 12.3 °C 11.5 °C 1018.8 hPa Calm     95% 0 mm meteobridge W/m2
08:14 12.4 °C 11.5 °C 1018.8 hPa Calm     94% 0 mm meteobridge W/m2
08:19 12.7 °C 11.9 °C 1018.8 hPa Calm     95% 0 mm meteobridge W/m2
08:24 12.8 °C 12 °C 1018.8 hPa Calm     95% 0 mm meteobridge W/m2
08:29 13 °C 11.9 °C 1019.2 hPa Calm     93% 0 mm meteobridge W/m2
08:34 13.2 °C 12.3 °C 1019.2 hPa Calm     94% 0 mm meteobridge W/m2
08:39 13.4 °C 12.5 °C 1019.2 hPa Calm     94% 0 mm meteobridge W/m2
08:44 13.6 °C 12.5 °C 1019.2 hPa Calm     93% 0 mm meteobridge W/m2
08:49 13.8 °C 12.9 °C 1019.2 hPa Calm     94% 0 mm meteobridge W/m2
08:54 14 °C 13 °C 1019.5 hPa Calm     94% 0 mm meteobridge W/m2
08:59 14.1 °C 13 °C 1019.2 hPa Calm     93% 0 mm meteobridge W/m2
09:04 14.2 °C 13.1 °C 1019.2 hPa Calm     93% 0 mm meteobridge W/m2
09:09 14.4 °C 13.3 °C 1019.2 hPa Calm     93% 0 mm meteobridge W/m2
09:14 14.6 °C 13.3 °C 1019.2 hPa Calm     92% 0 mm meteobridge W/m2
09:19 14.7 °C 13.4 °C 1019.2 hPa Calm     92% 0 mm meteobridge W/m2
09:24 15 °C 13.5 °C 1019.2 hPa Calm     91% 0 mm meteobridge W/m2
09:29 15.2 °C 13.9 °C 1019.2 hPa Calm     92% 0 mm meteobridge W/m2
09:34 15.4 °C 13.9 °C 1019.2 hPa Calm     91% 0 mm meteobridge W/m2
09:39 15.6 °C 13.6 °C 1019.2 hPa Calm     88% 0 mm meteobridge W/m2
09:44 15.9 °C 13.9 °C 1019.2 hPa Calm     88% 0 mm meteobridge W/m2
09:49 16.2 °C 13.9 °C 1019.2 hPa Calm     86% 0 mm meteobridge W/m2
09:54 16.6 °C 14.1 °C 1019.2 hPa Calm     85% 0 mm meteobridge W/m2
09:59 16.7 °C 14.5 °C 1019.2 hPa Calm     87% 0 mm meteobridge W/m2
10:04 16.8 °C 14.4 °C 1019.2 hPa Calm     86% 0 mm meteobridge W/m2
10:09 17.1 °C 14.7 °C 1019.2 hPa Calm     86% 0 mm meteobridge W/m2
10:14 17.2 °C 15 °C 1019.2 hPa Calm     87% 0 mm meteobridge W/m2
10:19 17.4 °C 15.2 °C 1018.8 hPa Calm     87% 0 mm meteobridge W/m2
10:24 17.7 °C 15.5 °C 1019.2 hPa Calm     87% 0 mm meteobridge W/m2
10:29 17.7 °C 15 °C 1019.2 hPa Calm     84% 0 mm meteobridge W/m2
10:34 17.9 °C 14.6 °C 1019.2 hPa Calm     81% 0 mm meteobridge W/m2
10:39 18.2 °C 14.9 °C 1019.2 hPa Calm     81% 0 mm meteobridge W/m2
10:44 18.5 °C 15.4 °C 1019.2 hPa Calm     82% 0 mm meteobridge W/m2
10:49 18.7 °C 15.8 °C 1019.2 hPa Calm     83% 0 mm meteobridge W/m2
10:54 18.9 °C 15.8 °C 1019.2 hPa Calm     82% 0 mm meteobridge W/m2
10:59 19.1 °C 16 °C 1019.2 hPa Calm     82% 0 mm meteobridge W/m2
11:04 19.3 °C 15.6 °C 1019.2 hPa Calm     79% 0 mm meteobridge W/m2
11:09 19.6 °C 16.1 °C 1018.8 hPa Calm     80% 0 mm meteobridge W/m2
11:14 19.7 °C 15.6 °C 1018.8 hPa Calm     77% 0 mm meteobridge W/m2
11:19 19.9 °C 15.7 °C 1018.8 hPa Calm     77% 0 mm meteobridge W/m2
11:24 20.2 °C 15.8 °C 1018.8 hPa Calm     76% 0 mm meteobridge W/m2
11:29 20.6 °C 16 °C 1018.8 hPa Calm     75% 0 mm meteobridge W/m2
11:34 20.8 °C 16.2 °C 1018.8 hPa Calm     75% 0 mm meteobridge W/m2
11:39 21.1 °C 16.3 °C 1018.8 hPa Calm   1.6 km/h 74% 0 mm meteobridge W/m2
11:44 21.5 °C 16.2 °C 1018.8 hPa Calm     72% 0 mm meteobridge W/m2
11:49 21.8 °C 16.5 °C 1018.8 hPa Calm   6.4 km/h 72% 0 mm meteobridge W/m2
11:54 22.2 °C 17.3 °C 1018.8 hPa Calm   3.2 km/h 74% 0 mm meteobridge W/m2
11:59 22.4 °C 16.7 °C 1018.5 hPa Calm   6.4 km/h 70% 0 mm meteobridge W/m2
12:04 22.7 °C 16.9 °C 1018.5 hPa Calm   1.6 km/h 70% 0 mm meteobridge W/m2
12:09 22.9 °C 17.1 °C 1018.5 hPa Calm     70% 0 mm meteobridge W/m2
12:14 23 °C 17.2 °C 1018.5 hPa Calm   1.6 km/h 70% 0 mm meteobridge W/m2
12:19 23.1 °C 17.8 °C 1018.2 hPa Calm     72% 0 mm meteobridge W/m2
12:24 23.2 °C 17.2 °C 1018.2 hPa Calm     69% 0 mm meteobridge W/m2
12:29 23.3 °C 17.1 °C 1018.2 hPa NNW 1.4 km/h 1.6 km/h 68% 0 mm meteobridge W/m2
12:34 23.4 °C 17.2 °C 1018.2 hPa Calm     68% 0 mm meteobridge W/m2
12:39 23.4 °C 17.6 °C 1017.8 hPa Calm     70% 0 mm meteobridge W/m2
12:44 23.4 °C 17.4 °C 1017.8 hPa NE 1.4 km/h 1.6 km/h 69% 0 mm meteobridge W/m2
12:49 23.4 °C 17.6 °C 1017.8 hPa Calm     70% 0 mm meteobridge W/m2
12:54 23.6 °C 17.6 °C 1017.5 hPa Calm   8 km/h 69% 0 mm meteobridge W/m2
12:59 23.8 °C 17.1 °C 1017.5 hPa ENE 3.2 km/h 4.8 km/h 66% 0 mm meteobridge W/m2
13:04 24.1 °C 17.3 °C 1017.5 hPa Calm   4.8 km/h 66% 0 mm meteobridge W/m2
13:09 24.3 °C 17.3 °C 1017.5 hPa Calm   4.8 km/h 65% 0 mm meteobridge W/m2
13:14 24.6 °C 17.3 °C 1017.5 hPa Calm   1.6 km/h 64% 0 mm meteobridge W/m2
13:19 24.8 °C 17.8 °C 1017.5 hPa Calm     65% 0 mm meteobridge W/m2
13:24 25 °C 17 °C 1017.2 hPa Calm   6.4 km/h 61% 0 mm meteobridge W/m2
13:29 25.3 °C 17.2 °C 1017.2 hPa Calm   6.4 km/h 61% 0 mm meteobridge W/m2
13:34 25.5 °C 17.2 °C 1017.2 hPa WSW 1.4 km/h 8 km/h 60% 0 mm meteobridge W/m2
13:39 25.6 °C 17.5 °C 1017.2 hPa Calm   6.4 km/h 61% 0 mm meteobridge W/m2
13:44 25.4 °C 17.8 °C 1017.2 hPa Calm     63% 0 mm meteobridge W/m2
13:49 25.4 °C 16.8 °C 1016.8 hPa Calm   4.8 km/h 59% 0 mm meteobridge W/m2
13:54 25.6 °C 17 °C 1016.8 hPa NNW 6.4 km/h 6.4 km/h 59% 0 mm meteobridge W/m2
13:59 25.6 °C 17 °C 1016.8 hPa Calm   4.8 km/h 59% 0 mm meteobridge W/m2
14:04 25.6 °C 17.3 °C 1016.8 hPa WNW 3.2 km/h 6.4 km/h 60% 0 mm meteobridge W/m2
14:09 25.6 °C 17.3 °C 1016.8 hPa Calm     60% 0 mm meteobridge W/m2
14:14 25.4 °C 17.1 °C 1016.8 hPa Calm   1.6 km/h 60% 0 mm meteobridge W/m2
14:19 25.4 °C 17.1 °C 1016.8 hPa Calm   8 km/h 60% 0 mm meteobridge W/m2
14:24 25.6 °C 17 °C 1016.5 hPa Calm   4.8 km/h 59% 0 mm meteobridge W/m2
14:29 25.8 °C 17.2 °C 1016.5 hPa Calm   1.6 km/h 59% 0 mm meteobridge W/m2
14:34 25.7 °C 17.6 °C 1016.5 hPa Calm   1.6 km/h 61% 0 mm meteobridge W/m2
14:39 25.8 °C 16.9 °C 1016.5 hPa Calm   3.2 km/h 58% 0 mm meteobridge W/m2
14:44 25.9 °C 17.3 °C 1016.5 hPa Calm     59% 0 mm meteobridge W/m2
14:49 26.2 °C 16.7 °C 1016.5 hPa Calm   8 km/h 56% 0 mm meteobridge W/m2
14:54 26.3 °C 16.5 °C 1016.5 hPa North 1.4 km/h 4.8 km/h 55% 0 mm meteobridge W/m2
14:59 26.3 °C 16.8 °C 1016.1 hPa NNW 1.4 km/h 6.4 km/h 56% 0 mm meteobridge W/m2
15:04 26.2 °C 16.7 °C 1016.1 hPa Calm   4.8 km/h 56% 0 mm meteobridge W/m2
15:09 26.2 °C 16.4 °C 1016.1 hPa Calm   9.7 km/h 55% 0 mm meteobridge W/m2
15:14 26.3 °C 16.2 °C 1016.1 hPa Calm   1.6 km/h 54% 0 mm meteobridge W/m2
15:19 26.3 °C 16.2 °C 1016.1 hPa Calm   6.4 km/h 54% 0 mm meteobridge W/m2
15:24 26.3 °C 17.1 °C 1016.1 hPa Calm   1.6 km/h 57% 0 mm meteobridge W/m2
15:29 26.5 °C 16.7 °C 1016.1 hPa WNW 1.4 km/h 1.6 km/h 55% 0 mm meteobridge W/m2
15:34 26.6 °C 16.2 °C 1016.1 hPa Calm   1.6 km/h 53% 0 mm meteobridge W/m2
15:39 26.4 °C 16 °C 1016.1 hPa Calm   1.6 km/h 53% 0 mm meteobridge W/m2
15:44 26.5 °C 16.1 °C 1016.1 hPa Calm   3.2 km/h 53% 0 mm meteobridge W/m2
15:49 26.6 °C 15.6 °C 1016.1 hPa Calm   6.4 km/h 51% 0 mm meteobridge W/m2
15:54 26.7 °C 16 °C 1016.1 hPa Calm   4.8 km/h 52% 0 mm meteobridge W/m2
15:59 26.8 °C 16.7 °C 1016.1 hPa Calm   1.6 km/h 54% 0 mm meteobridge W/m2
16:04 26.7 °C 16.6 °C 1016.1 hPa Calm   6.4 km/h 54% 0 mm meteobridge W/m2
16:09 26.7 °C 16 °C 1016.1 hPa Calm   1.6 km/h 52% 0 mm meteobridge W/m2
16:14 26.7 °C 15.7 °C 1016.1 hPa NNE 1.4 km/h 3.2 km/h 51% 0 mm meteobridge W/m2
16:19 26.8 °C 15.5 °C 1015.8 hPa Calm   12.9 km/h 50% 0 mm meteobridge W/m2
16:24 26.9 °C 15.6 °C 1015.8 hPa NE 1.4 km/h 4.8 km/h 50% 0 mm meteobridge W/m2
16:29 26.8 °C 15.2 °C 1015.8 hPa NNW 3.2 km/h 8 km/h 49% 0 mm meteobridge W/m2
16:34 26.7 °C 16 °C 1015.8 hPa East 6.4 km/h 9.7 km/h 52% 0 mm meteobridge W/m2
16:39 26.7 °C 14.5 °C 1015.8 hPa North 1.4 km/h 3.2 km/h 47% 0 mm meteobridge W/m2
16:44 26.8 °C 15.2 °C 1015.8 hPa NNW 1.4 km/h 4.8 km/h 49% 0 mm meteobridge W/m2
16:49 26.8 °C 16.1 °C 1015.5 hPa Calm   3.2 km/h 52% 0 mm meteobridge W/m2
16:54 26.7 °C 16.3 °C 1015.5 hPa Calm   4.8 km/h 53% 0 mm meteobridge W/m2
16:59 26.7 °C 16.3 °C 1015.8 hPa Calm   9.7 km/h 53% 0 mm meteobridge W/m2
17:04 26.6 °C 16.8 °C 1015.5 hPa NW 1.4 km/h 6.4 km/h 55% 0 mm meteobridge W/m2
17:09 26.7 °C 16.9 °C 1015.5 hPa SE 3.2 km/h 3.2 km/h 55% 0 mm meteobridge W/m2
17:14 26.7 °C 15.1 °C 1015.5 hPa Calm   6.4 km/h 49% 0 mm meteobridge W/m2
17:19 26.9 °C 14.6 °C 1015.1 hPa Calm   3.2 km/h 47% 0 mm meteobridge W/m2
17:24 26.8 °C 15.5 °C 1015.1 hPa Calm   3.2 km/h 50% 0 mm meteobridge W/m2
17:29 26.7 °C 16.3 °C 1015.1 hPa Calm   1.6 km/h 53% 0 mm meteobridge W/m2
17:34 26.6 °C 16.2 °C 1015.1 hPa Calm   8 km/h 53% 0 mm meteobridge W/m2
17:39 26.6 °C 16.5 °C 1015.1 hPa Calm     54% 0 mm meteobridge W/m2
17:44 26.3 °C 16.5 °C 1015.1 hPa Calm   1.6 km/h 55% 0 mm meteobridge W/m2
17:49 26.2 °C 16.4 °C 1015.1 hPa Calm   3.2 km/h 55% 0 mm meteobridge W/m2
17:54 26.2 °C 17 °C 1015.1 hPa Calm   1.6 km/h 57% 0 mm meteobridge W/m2
17:59 26.1 °C 16.9 °C 1014.8 hPa Calm   1.6 km/h 57% 0 mm meteobridge W/m2
18:04 26 °C 17.9 °C 1014.8 hPa Calm     61% 0 mm meteobridge W/m2
18:09 25.8 °C 17.2 °C 1014.8 hPa Calm     59% 0 mm meteobridge W/m2
18:14 25.7 °C 16.8 °C 1014.4 hPa Calm   3.2 km/h 58% 0 mm meteobridge W/m2
18:19 25.6 °C 17 °C 1014.8 hPa Calm   1.6 km/h 59% 0 mm meteobridge W/m2
18:24 25.4 °C 17.8 °C 1014.4 hPa Calm   1.6 km/h 63% 0 mm meteobridge W/m2
18:29 25.4 °C 17.6 °C 1014.4 hPa Calm     62% 0 mm meteobridge W/m2
18:34 25.2 °C 16.9 °C 1014.4 hPa Calm   3.2 km/h 60% 0 mm meteobridge W/m2
18:39 25.1 °C 17.6 °C 1014.4 hPa Calm     63% 0 mm meteobridge W/m2
18:44 24.8 °C 17.3 °C 1014.4 hPa Calm     63% 0 mm meteobridge W/m2
18:49 24.8 °C 17.8 °C 1014.4 hPa Calm   1.6 km/h 65% 0 mm meteobridge W/m2
18:54 24.6 °C 17.8 °C 1014.4 hPa Calm     66% 0 mm meteobridge W/m2
18:59 24.4 °C 18.1 °C 1014.4 hPa Calm     68% 0 mm meteobridge W/m2
19:04 24.3 °C 17.3 °C 1014.4 hPa Calm     65% 0 mm meteobridge W/m2
19:09 24.1 °C 17.1 °C 1014.4 hPa Calm     65% 0 mm meteobridge W/m2
19:14 24.1 °C 17.8 °C 1014.4 hPa Calm     68% 0 mm meteobridge W/m2
19:19 23.9 °C 17.4 °C 1014.4 hPa Calm     67% 0 mm meteobridge W/m2
19:24 23.8 °C 17.3 °C 1014.4 hPa Calm     67% 0 mm meteobridge W/m2
19:29 23.7 °C 17.7 °C 1014.4 hPa Calm     69% 0 mm meteobridge W/m2
19:34 23.6 °C 17.6 °C 1014.4 hPa Calm     69% 0 mm meteobridge W/m2
19:39 23.4 °C 17.8 °C 1014.4 hPa Calm     71% 0 mm meteobridge W/m2
19:44 23.3 °C 17.5 °C 1014.4 hPa Calm     70% 0 mm meteobridge W/m2
19:49 23.1 °C 17.6 °C 1014.4 hPa Calm     71% 0 mm meteobridge W/m2
19:54 22.9 °C 17.6 °C 1014.4 hPa Calm     72% 0 mm meteobridge W/m2
19:59 22.8 °C 17.7 °C 1014.4 hPa Calm     73% 0 mm meteobridge W/m2
20:04 22.6 °C 17.7 °C 1014.4 hPa Calm     74% 0 mm meteobridge W/m2
20:09 22.5 °C 17.8 °C 1014.4 hPa Calm     75% 0 mm meteobridge W/m2
20:14 22.3 °C 17.7 °C 1014.4 hPa Calm     75% 0 mm meteobridge W/m2
20:19 22.1 °C 17.7 °C 1014.8 hPa Calm     76% 0 mm meteobridge W/m2
20:24 21.9 °C 17.5 °C 1014.8 hPa Calm     76% 0 mm meteobridge W/m2
20:29 21.8 °C 17.6 °C 1014.8 hPa Calm     77% 0 mm meteobridge W/m2
20:34 21.7 °C 17.7 °C 1014.8 hPa Calm     78% 0 mm meteobridge W/m2
20:39 21.6 °C 17.6 °C 1014.8 hPa Calm     78% 0 mm meteobridge W/m2
20:44 21.4 °C 17.6 °C 1014.8 hPa Calm     79% 0 mm meteobridge W/m2
20:49 21.2 °C 17.6 °C 1014.8 hPa Calm     80% 0 mm meteobridge W/m2
20:54 20.9 °C 17.5 °C 1014.8 hPa Calm     81% 0 mm meteobridge W/m2
20:59 20.7 °C 17.3 °C 1014.8 hPa Calm     81% 0 mm meteobridge W/m2
21:04 20.5 °C 17.3 °C 1014.8 hPa Calm     82% 0 mm meteobridge W/m2
21:09 20.3 °C 17.1 °C 1014.8 hPa Calm     82% 0 mm meteobridge W/m2
21:14 20.1 °C 17.1 °C 1015.1 hPa Calm     83% 0 mm meteobridge W/m2
21:19 20 °C 17.2 °C 1015.1 hPa Calm     84% 0 mm meteobridge W/m2
21:24 19.8 °C 17.2 °C 1015.1 hPa Calm     85% 0 mm meteobridge W/m2
21:29 19.6 °C 17.2 °C 1015.1 hPa Calm     86% 0 mm meteobridge W/m2
21:34 19.4 °C 17 °C 1015.5 hPa Calm     86% 0 mm meteobridge W/m2
21:39 19.3 °C 16.9 °C 1015.5 hPa Calm     86% 0 mm meteobridge W/m2
21:44 19.2 °C 17 °C 1015.5 hPa Calm     87% 0 mm meteobridge W/m2
21:49 18.9 °C 16.7 °C 1015.5 hPa Calm     87% 0 mm meteobridge W/m2
21:54 18.8 °C 16.8 °C 1015.5 hPa Calm     88% 0 mm meteobridge W/m2
21:59 18.8 °C 16.8 °C 1015.8 hPa Calm     88% 0 mm meteobridge W/m2
22:04 18.6 °C 16.6 °C 1015.8 hPa Calm     88% 0 mm meteobridge W/m2
22:09 18.4 °C 16.6 °C 1015.8 hPa Calm     89% 0 mm meteobridge W/m2
22:14 18.4 °C 16.6 °C 1015.8 hPa Calm     89% 0 mm meteobridge W/m2
22:19 18.3 °C 16.5 °C 1015.8 hPa Calm     89% 0 mm meteobridge W/m2
22:24 18.2 °C 16.5 °C 1015.8 hPa Calm     90% 0 mm meteobridge W/m2
22:29 18.1 °C 16.4 °C 1016.1 hPa Calm     90% 0 mm meteobridge W/m2
22:34 18 °C 16.3 °C 1016.1 hPa Calm     90% 0 mm meteobridge W/m2
22:39 17.9 °C 16.4 °C 1016.1 hPa Calm     91% 0 mm meteobridge W/m2
22:44 17.8 °C 16.3 °C 1016.1 hPa Calm     91% 0 mm meteobridge W/m2
22:49 17.7 °C 16.2 °C 1016.1 hPa Calm     91% 0 mm meteobridge W/m2
22:54 17.7 °C 16.2 °C 1016.1 hPa Calm     91% 0 mm meteobridge W/m2
22:59 17.6 °C 16.3 °C 1016.1 hPa Calm     92% 0 mm meteobridge W/m2
23:04 17.5 °C 16.2 °C 1016.1 hPa Calm     92% 0 mm meteobridge W/m2
23:09 17.4 °C 16.1 °C 1016.1 hPa Calm     92% 0 mm meteobridge W/m2
23:14 17.3 °C 16 °C 1016.1 hPa Calm     92% 0 mm meteobridge W/m2
23:19 17.2 °C 16.1 °C 1016.1 hPa Calm     93% 0 mm meteobridge W/m2
23:24 17.2 °C 16.1 °C 1016.1 hPa Calm     93% 0 mm meteobridge W/m2
23:29 17.1 °C 16 °C 1016.1 hPa Calm     93% 0 mm meteobridge W/m2
23:34 17.1 °C 16 °C 1016.1 hPa Calm     93% 0 mm meteobridge W/m2
23:39 16.9 °C 15.8 °C 1015.8 hPa Calm     93% 0 mm meteobridge W/m2
23:44 16.9 °C 15.8 °C 1016.1 hPa Calm     93% 0 mm meteobridge W/m2
23:49 16.8 °C 15.7 °C 1015.8 hPa Calm     93% 0 mm meteobridge W/m2
23:54 16.8 °C 15.7 °C 1016.1 hPa Calm     93% 0 mm meteobridge W/m2
23:59 16.7 °C 15.6 °C 1016.1 hPa Calm     93% 0 mm meteobridge W/m2
EllijayWeather
Compliments of Weather Underground - 2.5 mb